Terminal Aerodrome Forecast
Issued by NWS Boston, MA

Home | Current Version | Previous Version | Text Only | Print | Product List | Glossary On
Versions: 1 2 3 4 5 6 7 8 9 10 11 12 13 14 15 16 17 18 19 20
000
FTUS41 KBOX 261725
TAFORH
TAF
KORH 261725Z 2618/2718 27012G25KT P6SM BKN040
     FM270600 28006KT P6SM FEW250
     FM271200 26004KT P6SM BKN140
     FM271600 16006KT P6SM -RA OVC100=

USA.gov is the U.S. government's official web portal to all federal, state and local government web resources and services.